Terminal Aerodrome Forecast
Issued by NWS North Platte, NE

Home | Current Version | Previous Version | Graphics & Text | Print | Product List | Glossary On
Versions: 1 2 3 4 5 6 7 8 9 10 11 12 13 14 15 16 17 18 19 20 21 22 23 24 25 26 27 28
000
FTUS43 KLBF 242300
TAFVTN
TAF
KVTN 242323Z 2500/2524 29011KT P6SM OVC090
     FM251400 31013G22KT 4SM -SHSN OVC015
      TEMPO 2514/2518 1SM -SN OVC008
     FM251800 36017G30KT P6SM OVC015=

USA.gov is the U.S. government's official web portal to all federal, state and local government web resources and services.